Time;durP1;ratioP1;P1;durP2;ratioP2;P2;SDS_P1;SDS_P2;PMS_P1;PMS_P2;Temp;Humidity;BMP_temperature;BMP_pressure;BME280_temperature;BME280_humidity;BME280_pressure;Samples;Min_cycle;Max_cycle;Signal;HPM_P1;HPM_P2
2022/01/17 00:01:32;;;;;;;13.55;4.22;;;;;;;-7.16;100.00;97950.06;4975488;28;20475;-71
2022/01/17 00:03:58;;;;;;;12.75;4.20;;;;;;;-7.03;100.00;97966.81;4993418;28;20050;-71
2022/01/17 00:06:24;;;;;;;12.18;3.80;;;;;;;-7.00;100.00;97967.59;4996480;28;20138;-70
2022/01/17 00:08:50;;;;;;;11.45;3.38;;;;;;;-7.08;100.00;97947.84;5013268;28;20133;-71
2022/01/17 00:11:17;;;;;;;14.77;4.45;;;;;;;-6.98;100.00;97960.47;4997710;28;20080;-71
2022/01/17 00:13:44;;;;;;;12.40;3.80;;;;;;;-7.03;100.00;97947.59;4997913;28;20057;-71
2022/01/17 00:16:14;;;;;;;17.05;3.97;;;;;;;-7.26;100.00;97898.16;4979806;28;20568;-70
2022/01/17 00:21:13;;;;;;;12.70;2.88;;;;;;;-7.05;100.00;97929.31;4992643;28;20453;-69
2022/01/17 00:23:39;;;;;;;8.73;2.55;;;;;;;-7.18;100.00;97907.28;4992501;28;20550;-70
2022/01/17 00:26:05;;;;;;;7.53;2.15;;;;;;;-7.00;100.00;97925.59;5008616;28;20043;-72
2022/01/17 00:28:31;;;;;;;15.30;2.88;;;;;;;-7.05;100.00;97908.31;4975862;28;20046;-69
2022/01/17 00:30:59;;;;;;;13.43;2.38;;;;;;;-6.95;100.00;97915.66;4992876;28;20160;-71
2022/01/17 00:33:25;;;;;;;10.32;2.42;;;;;;;-7.00;100.00;97894.06;4994677;28;20053;-70
2022/01/17 00:35:50;;;;;;;9.93;2.38;;;;;;;-7.00;100.00;97879.16;5010342;28;20554;-70
2022/01/17 00:38:16;;;;;;;9.40;2.35;;;;;;;-6.94;100.00;97877.97;4993459;28;20046;-70
2022/01/17 00:40:43;;;;;;;12.02;2.65;;;;;;;-6.89;100.00;97884.66;4993263;28;20080;-69
2022/01/17 00:43:12;;;;;;;12.15;3.40;;;;;;;-6.87;100.00;97871.44;4992993;28;20050;-71
2022/01/17 00:45:40;;;;;;;11.43;2.70;;;;;;;-6.82;100.00;97856.25;4993695;28;20038;-70
2022/01/17 00:48:07;;;;;;;11.65;2.83;;;;;;;-6.78;100.00;97854.31;4994008;28;20498;-71
2022/01/17 00:50:34;;;;;;;7.18;1.98;;;;;;;-6.74;100.00;97854.03;4961152;28;20080;-71
2022/01/17 00:53:02;;;;;;;9.18;2.50;;;;;;;-7.03;100.00;97769.88;4993002;28;20138;-67
2022/01/17 00:55:32;;;;;;;10.65;2.05;;;;;;;-6.56;100.00;97837.19;4992660;28;20118;-69
2022/01/17 00:57:57;;;;;;;11.40;3.17;;;;;;;-6.44;100.00;97824.25;4975694;28;20050;-69
2022/01/17 01:00:23;;;;;;;9.32;3.35;;;;;;;-6.40;99.90;97815.25;4976698;28;20108;-70
2022/01/17 01:02:49;;;;;;;12.00;3.60;;;;;;;-6.38;99.23;97784.47;5010126;28;20053;-70
2022/01/17 01:05:16;;;;;;;8.48;1.80;;;;;;;-6.48;98.69;97757.91;5010434;28;20104;-70
2022/01/17 01:07:43;;;;;;;13.73;2.70;;;;;;;-6.47;99.13;97745.59;4993848;28;20411;-71
2022/01/17 01:10:10;;;;;;;8.57;2.05;;;;;;;-6.23;98.43;97786.19;4993076;28;20427;-72
2022/01/17 01:12:43;;;;;;;15.60;3.03;;;;;;;-6.07;97.82;97786.94;4992828;28;20062;-69
2022/01/17 01:15:13;;;;;;;10.93;2.58;;;;;;;-6.07;97.21;97771.16;4992224;28;20048;-71
2022/01/17 01:20:52;;;;;;;9.70;2.40;;;;;;;-5.92;95.88;97755.38;4995372;28;20129;-70
2022/01/17 01:28:39;;;;;;;9.30;1.90;;;;;;;-6.03;94.97;97710.47;4992521;28;20053;-69
2022/01/17 01:31:12;;;;;;;8.35;2.63;;;;;;;-6.02;95.00;97706.91;4959070;28;20046;-70
2022/01/17 01:33:41;;;;;;;7.57;1.52;;;;;;;-5.76;94.55;97736.81;4993116;28;20050;-69
2022/01/17 01:36:16;;;;;;;10.80;1.70;;;;;;;-5.77;94.18;97733.34;4993036;28;20054;-69
2022/01/17 01:38:42;;;;;;;9.00;1.90;;;;;;;-5.77;94.24;97724.59;5007727;28;20062;-69
2022/01/17 01:41:09;;;;;;;9.65;2.33;;;;;;;-5.78;94.03;97718.47;4975298;28;20066;-69
2022/01/17 01:43:35;;;;;;;7.97;1.58;;;;;;;-5.77;93.94;97722.81;4992012;28;20042;-70
2022/01/17 01:46:02;;;;;;;9.23;1.83;;;;;;;-5.80;93.59;97714.25;4993719;28;20057;-69
2022/01/17 01:48:30;;;;;;;9.13;1.90;;;;;;;-5.78;93.41;97720.25;4991950;28;20050;-70
2022/01/17 01:50:57;;;;;;;10.45;2.08;;;;;;;-5.82;93.50;97716.97;4993938;28;20054;-70
2022/01/17 01:53:23;;;;;;;9.27;1.92;;;;;;;-5.89;93.02;97700.72;4975480;28;20054;-70
2022/01/17 01:55:54;;;;;;;10.95;1.92;;;;;;;-5.84;93.10;97706.56;4991892;28;20128;-69
2022/01/17 01:58:21;;;;;;;10.93;1.75;;;;;;;-5.87;92.96;97698.84;4991203;28;20153;-69
2022/01/17 02:00:47;;;;;;;6.88;1.60;;;;;;;-5.93;92.15;97672.13;4991537;28;20053;-71
2022/01/17 02:03:13;;;;;;;8.32;1.52;;;;;;;-5.71;91.85;97701.34;4993353;28;20078;-71
2022/01/17 02:05:40;;;;;;;6.57;1.70;;;;;;;-5.72;91.17;97697.03;4992294;28;20070;-68
2022/01/17 02:08:09;;;;;;;9.48;1.73;;;;;;;-5.63;90.81;97690.31;4990734;28;20153;-68
2022/01/17 02:10:35;;;;;;;7.82;1.67;;;;;;;-5.60;90.92;97687.50;4990840;28;20137;-69
2022/01/17 02:13:01;;;;;;;7.88;1.83;;;;;;;-5.63;90.51;97667.50;4974414;28;20081;-69
2022/01/17 02:15:27;;;;;;;9.60;1.80;;;;;;;-5.75;90.40;97628.81;4991431;28;20046;-69
2022/01/17 02:17:55;;;;;;;8.23;1.67;;;;;;;-5.83;89.77;97604.78;4992677;28;20408;-70
2022/01/17 02:20:23;;;;;;;11.02;1.50;;;;;;;-5.53;89.21;97645.84;4974568;28;20046;-69
2022/01/17 02:22:49;;;;;;;9.55;2.13;;;;;;;-5.52;89.00;97623.81;4992336;28;20133;-67
2022/01/17 02:25:15;;;;;;;7.10;1.23;;;;;;;-5.61;89.67;97604.22;5010186;28;20049;-69
2022/01/17 02:27:42;;;;;;;10.07;1.90;;;;;;;-5.47;88.74;97627.00;5011709;28;20046;-74
2022/01/17 02:30:11;;;;;;;9.05;1.98;;;;;;;-5.49;88.42;97613.09;4995984;28;20487;-70
2022/01/17 02:32:37;;;;;;;6.80;1.50;;;;;;;-5.46;88.64;97618.16;4996867;28;20274;-69
2022/01/17 02:35:21;;;;;;;6.53;1.63;;;;;;;-5.44;89.11;97605.75;5012223;28;20185;-69
2022/01/17 02:37:46;;;;;;;7.63;1.73;;;;;;;-5.61;88.64;97567.38;4997915;28;20050;-74
2022/01/17 02:40:14;;;;;;;9.57;2.45;;;;;;;-5.42;87.81;97588.88;4996072;28;20387;-73
2022/01/17 02:42:41;;;;;;;8.60;1.90;;;;;;;-5.64;88.26;97544.72;5011766;28;20043;-71
2022/01/17 02:45:32;;;;;;;9.02;2.25;;;;;;;-5.43;88.85;97560.03;5011780;28;20154;-75
2022/01/17 02:48:06;;;;;;;7.97;1.80;;;;;;;-5.44;88.70;97563.63;4995828;28;20065;-72
2022/01/17 02:50:32;;;;;;;9.48;1.88;;;;;;;-5.44;88.07;97553.09;4996554;28;20095;-71
2022/01/17 02:53:00;;;;;;;6.25;1.30;;;;;;;-5.67;88.69;97518.63;4995072;28;20058;-70
2022/01/17 02:55:26;;;;;;;8.38;2.05;;;;;;;-5.46;89.04;97544.44;4996147;28;20064;-70
2022/01/17 02:57:52;;;;;;;7.85;1.48;;;;;;;-5.53;89.24;97540.53;4994293;28;20287;-69
2022/01/17 03:00:18;;;;;;;9.63;2.25;;;;;;;-5.63;89.41;97533.28;4994197;28;20545;-68
2022/01/17 03:02:48;;;;;;;7.68;1.42;;;;;;;-5.93;89.29;97477.47;4978489;28;20561;-69
2022/01/17 03:05:18;;;;;;;11.40;1.83;;;;;;;-5.73;89.44;97510.31;5011163;28;20442;-72
2022/01/17 03:07:44;;;;;;;8.88;1.50;;;;;;;-5.57;88.99;97538.13;4994364;28;20148;-71
2022/01/17 03:10:20;;;;;;;9.10;2.03;;;;;;;-5.55;89.47;97518.78;4978354;28;20502;-70
2022/01/17 03:12:46;;;;;;;9.70;2.17;;;;;;;-5.65;88.93;97493.06;4996546;28;20074;-69
2022/01/17 03:15:13;;;;;;;9.95;1.60;;;;;;;-5.57;88.96;97501.25;4996835;28;20046;-69
2022/01/17 03:17:40;;;;;;;9.13;1.85;;;;;;;-5.55;88.78;97492.44;4995834;28;20046;-70
2022/01/17 03:20:06;;;;;;;6.35;1.48;;;;;;;-5.52;88.75;97508.00;4994180;28;20065;-69
2022/01/17 03:22:33;;;;;;;8.88;1.90;;;;;;;-5.77;88.62;97457.06;4994378;28;20086;-68
2022/01/17 03:24:59;;;;;;;6.13;1.20;;;;;;;-5.75;89.25;97460.41;4994378;28;20054;-70
2022/01/17 03:27:25;;;;;;;6.57;1.63;;;;;;;-5.50;89.24;97498.22;4995322;28;20042;-69
2022/01/17 03:29:50;;;;;;;7.78;1.60;;;;;;;-5.79;87.90;97453.69;4977859;28;20577;-71
2022/01/17 03:32:16;;;;;;;8.80;1.92;;;;;;;-5.47;88.79;97505.91;4995311;28;20509;-68
2022/01/17 03:34:42;;;;;;;9.20;2.22;;;;;;;-5.46;87.78;97487.38;5010368;28;20482;-70
2022/01/17 03:37:08;;;;;;;11.20;1.85;;;;;;;-5.46;87.78;97483.91;4993978;28;20141;-72
2022/01/17 03:39:34;;;;;;;9.93;1.60;;;;;;;-5.46;88.05;97486.53;4961365;28;20038;-69
2022/01/17 03:42:00;;;;;;;11.18;1.75;;;;;;;-5.49;87.29;97470.94;5009980;28;20054;-72
2022/01/17 03:44:26;;;;;;;8.15;2.10;;;;;;;-5.53;87.39;97464.22;4995143;28;20235;-72
2022/01/17 03:46:51;;;;;;;10.85;1.92;;;;;;;-5.47;88.25;97463.81;4993532;28;20751;-70
2022/01/17 03:49:17;;;;;;;7.93;2.03;;;;;;;-5.70;87.48;97424.13;4993695;28;20364;-70
2022/01/17 03:51:43;;;;;;;9.27;1.63;;;;;;;-5.46;87.55;97460.22;4993237;28;20125;-68
2022/01/17 03:54:09;;;;;;;8.32;1.65;;;;;;;-5.50;87.53;97438.53;4993273;28;20145;-70
2022/01/17 03:56:35;;;;;;;10.13;1.80;;;;;;;-5.49;87.86;97439.38;5009704;28;20507;-71
2022/01/17 03:59:01;;;;;;;10.55;1.77;;;;;;;-5.53;87.92;97428.22;4992896;28;20558;-70
2022/01/17 04:01:26;;;;;;;9.55;1.83;;;;;;;-5.54;87.95;97421.25;4992702;28;20529;-70
2022/01/17 04:03:52;;;;;;;9.60;1.63;;;;;;;-5.57;88.03;97422.31;5009492;28;20437;-71
2022/01/17 04:06:18;;;;;;;8.50;1.60;;;;;;;-5.60;87.56;97414.63;5003612;28;20490;-71
2022/01/17 04:08:44;;;;;;;10.60;2.25;;;;;;;-5.78;87.39;97376.44;5010320;28;20041;-70
2022/01/17 04:11:10;;;;;;;10.32;2.35;;;;;;;-5.79;86.89;97360.75;4993080;28;20042;-69
2022/01/17 04:13:36;;;;;;;8.45;1.75;;;;;;;-5.57;86.63;97396.00;4993531;28;20069;-71
2022/01/17 04:16:02;;;;;;;8.63;1.70;;;;;;;-5.59;87.30;97405.81;4976915;28;20384;-73
2022/01/17 04:18:29;;;;;;;9.82;2.40;;;;;;;-5.59;86.91;97397.91;4994369;28;20085;-72
2022/01/17 04:20:56;;;;;;;8.43;2.17;;;;;;;-5.61;86.87;97383.16;4992811;28;20046;-72
2022/01/17 04:23:22;;;;;;;10.15;2.17;;;;;;;-5.68;87.15;97380.09;4993084;28;20061;-73
2022/01/17 04:25:49;;;;;;;9.25;2.20;;;;;;;-5.64;86.37;97373.69;4989766;28;20034;-73
2022/01/17 04:28:15;;;;;;;9.13;1.88;;;;;;;-5.92;86.53;97316.91;4981900;28;20123;-71
2022/01/17 04:30:42;;;;;;;7.15;1.83;;;;;;;-5.57;86.74;97356.50;4992036;28;20490;-72
2022/01/17 04:33:08;;;;;;;7.90;1.98;;;;;;;-5.61;86.67;97362.94;5030579;28;20061;-73
2022/01/17 04:35:35;;;;;;;10.00;2.05;;;;;;;-5.56;86.25;97354.72;4981001;28;20395;-74
2022/01/17 04:38:07;;;;;;;9.48;2.65;;;;;;;-5.57;86.48;97351.25;5015326;28;20084;-73
2022/01/17 04:40:36;;;;;;;10.27;2.28;;;;;;;-5.55;87.11;97340.63;5021350;28;20073;-73
2022/01/17 04:43:05;;;;;;;8.93;2.20;;;;;;;-5.74;86.02;97287.59;5016354;28;20060;-74
2022/01/17 04:45:32;;;;;;;12.55;2.53;;;;;;;-5.52;86.49;97329.03;5005892;28;20039;-75
2022/01/17 04:47:58;;;;;;;7.95;1.80;;;;;;;-5.50;86.36;97321.88;5001376;28;20057;-73
2022/01/17 04:50:27;;;;;;;8.52;2.20;;;;;;;-5.51;85.63;97320.19;4970632;28;20038;-73
2022/01/17 04:52:58;;;;;;;10.57;3.05;;;;;;;-5.55;85.73;97300.31;4984334;28;20462;-73
2022/01/17 04:55:25;;;;;;;6.50;1.55;;;;;;;-5.49;86.03;97297.22;4998617;28;20117;-73
2022/01/17 04:57:51;;;;;;;8.80;1.98;;;;;;;-5.51;85.95;97293.88;5001343;28;20093;-73
2022/01/17 05:00:20;;;;;;;14.77;2.22;;;;;;;-5.50;86.76;97295.56;5000130;28;20474;-74
2022/01/17 05:02:46;;;;;;;8.80;1.75;;;;;;;-5.48;87.29;97293.66;5000093;28;20045;-73
2022/01/17 05:05:12;;;;;;;8.00;2.05;;;;;;;-5.56;88.21;97278.41;4967494;28;20157;-74
2022/01/17 05:07:39;;;;;;;10.40;2.20;;;;;;;-5.57;90.01;97267.03;5002651;28;20466;-74
2022/01/17 05:10:08;;;;;;;10.00;2.72;;;;;;;-5.67;90.93;97267.78;4983602;28;20050;-74
2022/01/17 05:12:34;;;;;;;27.98;3.38;;;;;;;-5.63;93.01;97275.38;4984825;28;20073;-74
2022/01/17 05:15:00;;;;;;;9.52;1.73;;;;;;;-5.65;93.73;97266.75;4997948;28;20042;-74
2022/01/17 05:19:58;;;;;;;12.75;3.05;;;;;;;-5.77;95.28;97246.59;4986608;28;20034;-73
2022/01/17 05:22:33;;;;;;;8.63;2.13;;;;;;;-5.75;95.32;97260.44;4976796;28;20609;-74
2022/01/17 05:25:00;;;;;;;11.75;2.42;;;;;;;-5.75;95.34;97260.44;5008597;28;20516;-72
2022/01/17 05:27:26;;;;;;;9.10;2.35;;;;;;;-5.73;96.80;97252.47;5033994;28;20045;-75
2022/01/17 05:29:52;;;;;;;10.20;2.28;;;;;;;-5.77;96.93;97238.69;5016030;28;20050;-75
2022/01/17 05:32:20;;;;;;;11.18;2.70;;;;;;;-5.71;97.42;97250.56;5015703;28;20046;-75
2022/01/17 05:34:47;;;;;;;11.52;2.15;;;;;;;-5.77;97.65;97230.81;4981717;28;20073;-75
2022/01/17 05:37:13;;;;;;;9.68;2.55;;;;;;;-5.81;98.45;97218.81;5010822;28;20095;-75
2022/01/17 05:39:40;;;;;;;9.00;2.38;;;;;;;-5.78;98.82;97213.31;5004376;28;20045;-73
2022/01/17 05:42:07;;;;;;;13.32;2.72;;;;;;;-5.75;98.97;97217.53;5031155;28;20069;-74
2022/01/17 05:44:33;;;;;;;11.63;2.67;;;;;;;-6.11;98.60;97154.31;5010174;28;20042;-74
2022/01/17 05:47:00;;;;;;;12.27;3.08;;;;;;;-5.99;98.11;97183.34;5026561;28;20446;-74
2022/01/17 05:49:25;;;;;;;11.88;3.08;;;;;;;-5.76;98.22;97208.78;5012960;28;20080;-75
2022/01/17 05:51:51;;;;;;;10.23;2.47;;;;;;;-5.71;99.32;97209.28;5000938;28;20459;-75
2022/01/17 05:54:17;;;;;;;12.40;2.78;;;;;;;-5.94;99.40;97170.69;5012946;28;20378;-75
2022/01/17 05:56:43;;;;;;;11.10;3.30;;;;;;;-5.78;99.65;97202.78;5012655;28;20129;-75
2022/01/17 05:59:09;;;;;;;12.02;3.08;;;;;;;-5.73;100.00;97199.84;5012479;28;20128;-74
2022/01/17 06:01:39;;;;;;;12.32;2.78;;;;;;;-6.11;100.00;97117.50;4985638;28;20042;-73
2022/01/17 06:04:05;;;;;;;17.48;3.58;;;;;;;-5.80;100.00;97167.88;4992299;28;20088;-73
2022/01/17 06:06:31;;;;;;;9.90;2.50;;;;;;;-5.71;100.00;97151.41;4977983;28;20046;-73
2022/01/17 06:08:57;;;;;;;14.68;4.50;;;;;;;-5.70;100.00;97145.22;4979901;28;20049;-73
2022/01/17 06:11:23;;;;;;;12.07;2.90;;;;;;;-5.68;100.00;97130.13;4976689;28;20474;-74
2022/01/17 06:13:49;;;;;;;12.02;3.05;;;;;;;-5.71;100.00;97111.94;5018783;28;20470;-74
2022/01/17 06:16:15;;;;;;;10.38;2.53;;;;;;;-5.71;100.00;97098.78;5014207;28;20073;-74
2022/01/17 06:18:40;;;;;;;13.88;3.53;;;;;;;-5.90;100.00;97080.06;4980227;28;20494;-74
2022/01/17 06:21:06;;;;;;;15.10;3.45;;;;;;;-5.57;100.00;97169.66;5010123;28;20053;-74
2022/01/17 06:23:32;;;;;;;11.45;3.35;;;;;;;-5.60;100.00;97172.50;4978766;28;20042;-75
2022/01/17 06:25:58;;;;;;;17.42;4.03;;;;;;;-5.57;100.00;97198.59;4997205;28;20060;-74
2022/01/17 06:28:23;;;;;;;12.48;3.13;;;;;;;-5.49;100.00;97265.63;5015112;28;20427;-72
2022/01/17 06:30:50;;;;;;;22.63;4.90;;;;;;;-5.48;100.00;97270.81;4984664;28;20065;-72
2022/01/17 06:33:16;;;;;;;13.32;4.30;;;;;;;-5.57;100.00;97263.56;4997034;28;20060;-72
2022/01/17 06:35:42;;;;;;;14.48;3.90;;;;;;;-5.41;100.00;97266.78;5014621;28;20050;-74
2022/01/17 06:38:08;;;;;;;16.05;5.20;;;;;;;-5.47;100.00;97232.16;5017672;28;20052;-74
2022/01/17 06:40:34;;;;;;;17.52;4.43;;;;;;;-5.44;100.00;97185.41;5012956;28;20674;-75
2022/01/17 06:43:00;;;;;;;16.27;4.45;;;;;;;-5.42;100.00;97156.31;4997053;28;20069;-73
2022/01/17 06:45:26;;;;;;;18.30;5.32;;;;;;;-5.76;100.00;97100.94;5010743;28;20627;-73
2022/01/17 06:47:52;;;;;;;16.63;3.83;;;;;;;-5.68;100.00;97106.44;5016677;28;20549;-74
2022/01/17 06:50:18;;;;;;;17.40;4.28;;;;;;;-5.69;100.00;97112.69;5011346;28;20152;-74
2022/01/17 06:52:45;;;;;;;24.10;5.82;;;;;;;-5.75;100.00;97096.50;5007348;28;20073;-74
2022/01/17 06:55:11;;;;;;;16.10;4.55;;;;;;;-5.71;100.00;97093.53;5005876;28;20054;-73
2022/01/17 06:57:37;;;;;;;14.80;4.47;;;;;;;-5.75;100.00;97097.34;5016063;28;20049;-74
2022/01/17 07:00:09;;;;;;;21.00;5.88;;;;;;;-5.70;100.00;97116.28;5010863;28;20687;-75
2022/01/17 07:02:34;;;;;;;18.38;5.75;;;;;;;-5.95;100.00;97055.94;5018759;28;20061;-76
2022/01/17 07:05:00;;;;;;;20.25;5.35;;;;;;;-5.71;100.00;97085.63;4996448;28;20314;-75
2022/01/17 07:07:26;;;;;;;18.48;5.18;;;;;;;-5.99;100.00;97030.81;5000058;28;20065;-74
2022/01/17 07:09:52;;;;;;;17.50;5.65;;;;;;;-5.79;100.00;97069.56;5009962;28;20492;-74
2022/01/17 07:12:17;;;;;;;15.27;4.78;;;;;;;-5.57;100.00;97105.66;5026682;28;20048;-73
2022/01/17 07:14:43;;;;;;;15.35;5.13;;;;;;;-5.56;100.00;97102.06;5019151;28;20050;-72
2022/01/17 07:17:10;;;;;;;16.95;4.70;;;;;;;-5.46;100.00;97110.13;5013801;28;20050;-72
2022/01/17 07:19:36;;;;;;;20.20;5.57;;;;;;;-5.59;100.00;97073.38;5016834;28;20069;-71
2022/01/17 07:22:04;;;;;;;20.92;7.38;;;;;;;-5.52;100.00;97089.53;5012568;28;20050;-73
2022/01/17 07:24:29;;;;;;;20.02;5.43;;;;;;;-5.48;100.00;97086.56;4611117;28;20059;-75
2022/01/17 07:26:55;;;;;;;19.08;5.70;;;;;;;-5.47;100.00;97104.03;4272682;32;20074;-74
2022/01/17 07:29:21;;;;;;;16.90;5.63;;;;;;;-5.49;100.00;97062.97;4262938;32;20156;-74
2022/01/17 07:31:47;;;;;;;17.23;5.03;;;;;;;-5.43;100.00;97057.25;4279407;32;20122;-74
2022/01/17 07:34:13;;;;;;;19.38;6.38;;;;;;;-5.42;100.00;97077.34;4272227;32;20054;-73
2022/01/17 07:36:39;;;;;;;19.90;6.10;;;;;;;-5.46;100.00;97063.59;4269710;32;20418;-73
2022/01/17 07:39:05;;;;;;;18.77;6.22;;;;;;;-5.46;100.00;97060.13;4271459;32;20062;-75
2022/01/17 07:41:31;;;;;;;18.75;5.57;;;;;;;-5.46;100.00;97065.38;4274371;32;20462;-73
2022/01/17 07:43:57;;;;;;;15.05;5.10;;;;;;;-5.45;100.00;97044.19;4260796;32;20054;-72
2022/01/17 07:51:27;;;;;;;22.55;5.57;;;;;;;-5.61;100.00;96978.75;4259018;28;20107;-72
2022/01/17 07:53:56;;;;;;;18.50;5.65;;;;;;;-5.49;100.00;96995.38;4275118;32;20054;-71
2022/01/17 07:56:23;;;;;;;16.88;5.13;;;;;;;-5.57;100.00;96953.84;4263029;32;20067;-73
2022/01/17 07:58:49;;;;;;;21.58;5.88;;;;;;;-5.35;100.00;96999.59;4278581;32;20063;-75
2022/01/17 08:01:15;;;;;;;16.17;4.65;;;;;;;-5.30;100.00;96994.81;4267601;33;20058;-75
2022/01/17 08:03:41;;;;;;;18.63;5.00;;;;;;;-5.34;100.00;96969.66;4275829;32;20623;-76
2022/01/17 08:06:07;;;;;;;17.95;5.63;;;;;;;-5.31;100.00;96973.88;4274052;32;20058;-75
2022/01/17 08:08:33;;;;;;;15.95;5.40;;;;;;;-5.23;100.00;96980.22;4277423;32;20058;-73
2022/01/17 08:10:59;;;;;;;15.57;4.30;;;;;;;-5.17;100.00;96981.53;4255046;32;20101;-71
2022/01/17 08:13:25;;;;;;;17.92;5.82;;;;;;;-5.19;100.00;96980.78;4280174;32;20439;-73
2022/01/17 08:15:50;;;;;;;13.75;5.18;;;;;;;-5.39;100.00;96941.06;4283081;32;20088;-78
2022/01/17 08:18:17;;;;;;;16.23;6.40;;;;;;;-5.11;100.00;96981.91;4285517;32;20058;-77
2022/01/17 08:20:43;;;;;;;14.18;5.55;;;;;;;-5.10;100.00;96967.75;4613811;28;20045;-78
2022/01/17 08:23:09;;;;;;;17.42;5.65;;;;;;;-5.09;100.00;96969.44;4999070;28;20061;-78
2022/01/17 08:25:37;;;;;;;16.73;5.90;;;;;;;-5.07;100.00;96973.75;4983777;28;20418;-79
2022/01/17 08:28:03;;;;;;;17.13;5.88;;;;;;;-5.06;100.00;96968.34;4991099;28;20061;-79
2022/01/17 08:30:31;;;;;;;15.73;5.80;;;;;;;-5.05;100.00;96958.66;5024434;28;20068;-77
2022/01/17 08:32:58;;;;;;;14.55;5.80;;;;;;;-5.01;100.00;96968.00;4989087;28;20083;-76
2022/01/17 08:35:24;;;;;;;18.30;6.47;;;;;;;-5.04;100.00;96957.72;5002677;28;20045;-79
2022/01/17 08:37:50;;;;;;;16.23;5.95;;;;;;;-5.07;100.00;96955.31;5007893;28;20025;-76
2022/01/17 08:40:18;;;;;;;18.05;4.97;;;;;;;-5.04;100.00;96944.56;5007814;28;20060;-76
2022/01/17 08:42:45;;;;;;;17.00;5.57;;;;;;;-5.04;100.00;96960.34;5009577;28;20533;-79
2022/01/17 08:45:13;;;;;;;16.83;6.88;;;;;;;-5.07;100.00;96955.31;5003987;28;20061;-76
2022/01/17 08:47:43;;;;;;;15.05;5.70;;;;;;;-5.04;100.00;96940.13;5020637;28;20117;-77
2022/01/17 08:50:09;;;;;;;16.70;5.88;;;;;;;-5.06;100.00;96942.03;4976246;28;20052;-79
2022/01/17 08:52:36;;;;;;;15.65;5.93;;;;;;;-5.03;100.00;96946.22;5013774;28;20054;-77
2022/01/17 08:55:02;;;;;;;16.30;5.03;;;;;;;-5.00;100.00;96945.97;5005459;28;20113;-74
2022/01/17 08:57:28;;;;;;;13.82;4.80;;;;;;;-4.99;100.00;96937.09;4996196;28;20046;-78
2022/01/17 08:59:54;;;;;;;17.63;5.28;;;;;;;-5.04;100.00;96939.28;5003635;28;20056;-75
2022/01/17 09:02:20;;;;;;;13.68;5.18;;;;;;;-5.00;100.00;96945.97;5000620;28;20086;-72
2022/01/17 09:04:46;;;;;;;16.85;5.13;;;;;;;-4.91;100.00;96945.22;4998549;28;20067;-75
2022/01/17 09:07:15;;;;;;;18.02;6.20;;;;;;;-5.34;99.87;96869.63;4978285;28;20137;-77
2022/01/17 09:09:43;;;;;;;20.65;4.90;;;;;;;-4.96;99.92;96929.81;5004438;28;20057;-75
2022/01/17 09:12:10;;;;;;;14.93;5.93;;;;;;;-4.87;99.21;96941.38;5018093;28;20034;-79
2022/01/17 09:14:37;;;;;;;17.30;6.38;;;;;;;-5.02;98.59;96909.22;4987398;28;20148;-78
2022/01/17 09:17:08;;;;;;;14.63;5.15;;;;;;;-5.06;98.27;96888.50;5009961;28;20042;-76
2022/01/17 09:19:39;;;;;;;14.65;5.13;;;;;;;-4.80;98.46;96921.50;5008498;28;20042;-76
2022/01/17 09:22:06;;;;;;;17.77;6.40;;;;;;;-4.82;98.24;96933.97;4997006;28;20125;-75
2022/01/17 09:24:33;;;;;;;16.55;5.97;;;;;;;-4.83;98.90;96913.84;4997798;28;20248;-72
2022/01/17 09:27:00;;;;;;;17.88;5.35;;;;;;;-4.76;98.73;96917.66;5000369;28;20070;-71
2022/01/17 09:29:26;;;;;;;16.73;6.55;;;;;;;-4.75;98.96;96924.63;4994832;28;20041;-70
2022/01/17 09:31:52;;;;;;;15.07;7.18;;;;;;;-4.98;98.79;96880.81;4994232;28;20502;-73
2022/01/17 09:34:18;;;;;;;17.30;5.65;;;;;;;-4.79;99.34;96904.75;5001808;28;20061;-75
2022/01/17 09:36:44;;;;;;;19.63;7.18;;;;;;;-4.83;98.93;96884.84;4991321;28;20072;-73
2022/01/17 09:39:10;;;;;;;17.17;7.35;;;;;;;-4.78;99.58;96892.41;5011757;28;20038;-74
2022/01/17 09:41:37;;;;;;;16.88;6.68;;;;;;;-4.85;99.87;96865.72;4991803;28;20181;-74
2022/01/17 09:44:06;;;;;;;14.55;5.57;;;;;;;-4.94;100.00;96848.00;4984941;28;20022;-74
2022/01/17 09:46:38;;;;;;;14.25;6.15;;;;;;;-4.72;99.59;96879.53;4992525;28;20062;-73
2022/01/17 09:49:13;;;;;;;16.95;7.15;;;;;;;-4.70;99.55;96867.09;4979782;28;20136;-69
2022/01/17 09:52:05;;;;;;;18.88;8.88;;;;;;;-4.98;99.21;96823.72;4986746;28;20046;-74
2022/01/17 09:54:31;;;;;;;16.10;5.82;;;;;;;-4.73;99.15;96854.16;4986925;28;20056;-78
2022/01/17 09:56:59;;;;;;;17.70;6.60;;;;;;;-4.70;99.17;96858.34;5022152;28;20065;-75
2022/01/17 09:59:25;;;;;;;17.63;6.63;;;;;;;-4.82;98.88;96823.31;5003959;28;20057;-76
2022/01/17 10:01:51;;;;;;;15.75;6.50;;;;;;;-4.93;99.33;96800.47;5019271;28;20614;-77
2022/01/17 10:04:17;;;;;;;15.75;6.30;;;;;;;-4.67;99.29;96845.75;4973123;28;20155;-73
2022/01/17 10:06:54;;;;;;;19.85;7.15;;;;;;;-4.62;99.61;96850.66;5022907;28;20494;-77
2022/01/17 10:09:21;;;;;;;17.70;6.43;;;;;;;-5.00;99.04;96772.13;4999041;28;20083;-76
2022/01/17 10:12:08;;;;;;;17.98;5.55;;;;;;;-4.59;100.00;96828.47;5017350;28;20233;-74
2022/01/17 10:14:38;;;;;;;17.67;7.72;;;;;;;-4.54;100.00;96834.19;5010558;28;20125;-75
2022/01/17 10:17:13;;;;;;;23.90;8.20;;;;;;;-4.52;100.00;96840.19;5021943;28;20073;-75
2022/01/17 10:19:40;;;;;;;16.98;6.95;;;;;;;-4.54;100.00;96826.28;5015872;28;20092;-75
2022/01/17 10:22:14;;;;;;;19.60;7.40;;;;;;;-4.48;100.00;96828.44;5011939;28;20239;-76
2022/01/17 10:25:07;;;;;;;21.38;9.30;;;;;;;-4.50;100.00;96819.78;5009536;28;20041;-75
2022/01/17 10:35:14;;;;;;;;;;;;;;;-4.45;100.00;96833.44;4983558;28;20045;-71
2022/01/17 10:37:41;;;;;;;21.17;8.48;;;;;;;-4.72;100.00;96768.88;5012303;28;19921;-71
2022/01/17 10:40:12;;;;;;;23.17;8.85;;;;;;;-4.48;100.00;96812.63;5003514;28;20046;-73
2022/01/17 10:42:43;;;;;;;19.00;7.75;;;;;;;-4.43;100.00;96813.88;5010604;28;20470;-74
2022/01/17 10:45:15;;;;;;;25.13;9.13;;;;;;;-4.44;100.00;96808.75;5023057;28;20050;-74
2022/01/17 10:47:45;;;;;;;22.17;10.13;;;;;;;-4.43;100.00;96799.88;4997390;28;20029;-72
2022/01/17 10:50:23;;;;;;;23.92;7.25;;;;;;;-4.34;100.00;96791.19;5018777;28;20508;-73
2022/01/17 10:52:51;;;;;;;19.52;8.30;;;;;;;-4.33;100.00;96777.03;5001720;28;20076;-78
2022/01/17 10:55:25;;;;;;;20.70;7.13;;;;;;;-4.30;100.00;96787.34;5014122;28;20128;-73
2022/01/17 10:57:56;;;;;;;25.20;10.35;;;;;;;-4.37;100.00;96779.09;5008646;28;20057;-72
2022/01/17 11:00:23;;;;;;;;;;;;;;;-4.36;100.00;96772.03;4994469;28;20050;-69
2022/01/17 11:02:54;;;;;;;22.35;9.45;;;;;;;-4.38;100.00;96787.16;4984506;28;19975;-73
2022/01/17 11:05:22;;;;;;;25.10;10.35;;;;;;;-4.41;100.00;96782.13;5007423;28;20038;-69
2022/01/17 11:07:55;;;;;;;20.60;9.05;;;;;;;-4.37;100.00;96786.19;5001721;28;20042;-71
2022/01/17 11:10:31;;;;;;;29.10;12.43;;;;;;;-4.47;100.00;96769.47;4997598;28;21003;-72
2022/01/17 11:12:58;;;;;;;25.45;9.45;;;;;;;-4.36;100.00;96772.03;5005395;28;20087;-71
2022/01/17 11:15:25;;;;;;;26.63;10.02;;;;;;;-4.42;100.00;96759.38;5019104;28;20421;-72
2022/01/17 11:17:55;;;;;;;26.67;10.73;;;;;;;-4.39;100.00;96767.00;4966835;28;20065;-71
2022/01/17 11:20:23;;;;;;;22.10;10.75;;;;;;;-4.48;100.00;96744.06;4989331;28;20398;-70
2022/01/17 11:22:51;;;;;;;23.35;11.23;;;;;;;-4.41;100.00;96763.69;4985356;28;20065;-70
2022/01/17 11:25:37;;;;;;;25.80;11.80;;;;;;;-4.37;100.00;96762.44;5019555;28;20068;-71
2022/01/17 11:28:05;;;;;;;23.80;11.05;;;;;;;-4.45;100.00;96742.00;5011293;28;20204;-70
2022/01/17 11:30:34;;;;;;;26.05;9.43;;;;;;;-4.39;100.00;96753.81;4994030;28;20049;-71
2022/01/17 11:33:04;;;;;;;24.27;10.23;;;;;;;-4.39;100.00;96752.06;5008992;28;20045;-72
2022/01/17 11:35:31;;;;;;;24.48;11.63;;;;;;;-4.43;100.00;96755.06;4996384;28;20048;-72
2022/01/17 11:38:00;;;;;;;34.92;10.52;;;;;;;-4.65;100.00;96701.50;4982283;28;20046;-72
2022/01/17 11:40:34;;;;;;;27.52;11.70;;;;;;;-4.44;100.00;96737.56;4989721;28;20042;-72
2022/01/17 11:43:01;;;;;;;26.15;10.68;;;;;;;-4.41;100.00;96732.03;4996613;28;21186;-72
2022/01/17 11:45:27;;;;;;;30.85;12.27;;;;;;;-4.40;100.00;96733.72;5021368;28;20523;-72
2022/01/17 11:48:04;;;;;;;26.33;11.48;;;;;;;-4.45;100.00;96718.28;5008695;28;20075;-72
2022/01/17 11:50:33;;;;;;;26.52;11.52;;;;;;;-4.40;100.00;96717.88;4992411;28;20072;-72
2022/01/17 11:53:10;;;;;;;19.73;9.07;;;;;;;-4.59;100.00;96689.63;5010322;28;20041;-71